createdAt,value
2023-05-05T00:01:22.102Z,3.63
2023-05-05T00:03:49.159Z,3.24
2023-05-05T00:06:15.962Z,4.30
2023-05-05T00:08:42.805Z,3.59
2023-05-05T00:11:09.464Z,4.21
2023-05-05T00:13:36.141Z,4.23
2023-05-05T00:16:02.835Z,4.09
2023-05-05T00:18:29.649Z,3.35
2023-05-05T00:20:56.304Z,3.89
2023-05-05T00:23:22.961Z,4.16
2023-05-05T00:25:49.623Z,3.16
2023-05-05T00:28:16.297Z,4.31
2023-05-05T00:30:43.196Z,4.28
2023-05-05T00:33:10.061Z,3.44
2023-05-05T00:35:36.777Z,2.55
2023-05-05T00:38:05.123Z,3.26
2023-05-05T00:40:31.803Z,3.75
2023-05-05T00:42:59.629Z,3.87
2023-05-05T00:45:26.356Z,3.94
2023-05-05T00:47:54.719Z,3.76
2023-05-05T00:50:24.346Z,3.69
2023-05-05T00:52:54.148Z,3.59
2023-05-05T00:55:21.704Z,3.67
2023-05-05T00:57:49.390Z,3.67
2023-05-05T01:00:17.931Z,2.67
2023-05-05T01:02:45.042Z,3.22
2023-05-05T01:05:14.166Z,2.99
2023-05-05T01:07:40.802Z,3.89
2023-05-05T01:10:22.951Z,3.41
2023-05-05T01:13:05.143Z,3.97
2023-05-05T01:15:37.733Z,3.95
2023-05-05T01:18:19.266Z,3.80
2023-05-05T01:20:59.444Z,3.80
2023-05-05T01:23:51.234Z,3.72
2023-05-05T01:26:49.150Z,3.83
2023-05-05T01:29:49.571Z,3.95
2023-05-05T01:32:26.990Z,3.81
2023-05-05T01:35:00.659Z,3.68
2023-05-05T01:37:50.399Z,3.68
2023-05-05T01:40:26.016Z,3.63
2023-05-05T01:42:55.261Z,3.46
2023-05-05T01:45:26.447Z,3.69
2023-05-05T01:47:55.841Z,3.67
2023-05-05T01:50:24.760Z,3.56
2023-05-05T01:52:52.640Z,2.50
2023-05-05T01:55:21.639Z,3.29
2023-05-05T01:57:49.887Z,3.45
2023-05-05T02:00:19.377Z,2.92
2023-05-05T02:02:48.258Z,3.11
2023-05-05T02:05:16.918Z,2.88
2023-05-05T02:07:45.339Z,3.18
2023-05-05T02:10:14.174Z,3.59
2023-05-05T02:12:42.933Z,3.00
2023-05-05T02:15:10.970Z,3.66
2023-05-05T02:17:42.982Z,3.72
2023-05-05T02:20:12.576Z,2.89
2023-05-05T02:22:40.092Z,2.79
2023-05-05T02:25:07.922Z,3.29
2023-05-05T02:27:37.240Z,3.36
2023-05-05T02:30:09.393Z,0.49
2023-05-05T02:33:00.059Z,2.43
2023-05-05T02:35:35.665Z,1.08
2023-05-05T02:38:05.619Z,2.26
2023-05-05T02:40:40.701Z,1.61
2023-05-05T02:43:11.266Z,2.73
2023-05-05T02:45:38.607Z,2.78
2023-05-05T02:48:05.974Z,2.13
2023-05-05T02:50:37.505Z,2.54
2023-05-05T02:53:26.187Z,2.12
2023-05-05T02:55:57.183Z,2.13
2023-05-05T02:58:41.565Z,1.93
2023-05-05T03:01:31.557Z,2.70
2023-05-05T03:04:07.704Z,2.61
2023-05-05T03:06:43.438Z,3.05
2023-05-05T03:09:28.041Z,2.34
2023-05-05T03:12:13.785Z,2.99
2023-05-05T03:14:55.614Z,-0.04
2023-05-05T03:17:24.933Z,2.97
2023-05-05T03:19:52.455Z,2.83
2023-05-05T03:22:20.007Z,2.70
2023-05-05T03:24:51.544Z,2.10
2023-05-05T03:27:22.408Z,1.80
2023-05-05T03:29:49.124Z,2.64
2023-05-05T03:32:16.426Z,2.34
2023-05-05T03:34:44.060Z,2.56
2023-05-05T03:37:11.003Z,2.21
2023-05-05T03:39:39.477Z,2.54
2023-05-05T03:42:07.450Z,3.44
2023-05-05T03:44:37.379Z,1.90
2023-05-05T03:47:04.245Z,3.15
2023-05-05T03:49:33.392Z,3.03
2023-05-05T03:52:00.695Z,2.71
2023-05-05T03:54:27.726Z,2.63
2023-05-05T03:56:54.838Z,2.55
2023-05-05T03:59:21.569Z,2.58
2023-05-05T04:01:49.890Z,3.44
2023-05-05T04:04:17.154Z,3.55
2023-05-05T04:06:43.942Z,2.70
2023-05-05T04:09:12.150Z,3.21
2023-05-05T04:11:38.932Z,3.31
2023-05-05T04:14:05.623Z,3.30
2023-05-05T04:16:32.653Z,2.00
2023-05-05T04:18:59.505Z,3.61
2023-05-05T04:21:27.000Z,2.67
2023-05-05T04:23:53.691Z,2.71
2023-05-05T04:26:21.898Z,1.77
2023-05-05T04:28:49.089Z,2.44
2023-05-05T04:31:17.300Z,1.25
2023-05-05T04:33:44.784Z,2.86
2023-05-05T04:36:12.392Z,2.44
2023-05-05T04:38:39.142Z,3.25
2023-05-05T04:41:09.176Z,3.40
2023-05-05T04:43:38.015Z,3.52
2023-05-05T04:46:05.134Z,2.02
2023-05-05T04:48:34.278Z,2.50
2023-05-05T04:51:04.871Z,3.10
2023-05-05T04:53:33.415Z,3.29
2023-05-05T04:56:01.217Z,3.10
2023-05-05T04:58:28.630Z,2.80
2023-05-05T05:01:02.073Z,2.60
2023-05-05T05:03:32.542Z,3.01
2023-05-05T05:05:59.325Z,2.46
2023-05-05T05:08:26.305Z,3.49
2023-05-05T05:10:52.926Z,3.86
2023-05-05T05:13:19.695Z,3.99
2023-05-05T05:15:46.534Z,3.90
2023-05-05T05:18:13.182Z,3.72
2023-05-05T05:20:39.921Z,4.49
2023-05-05T05:23:06.583Z,4.33
2023-05-05T05:25:36.894Z,4.50
2023-05-05T05:28:10.331Z,3.07
2023-05-05T05:30:43.996Z,2.62
2023-05-05T05:33:11.783Z,5.10
2023-05-05T05:35:39.708Z,5.21
2023-05-05T05:38:06.761Z,4.13
2023-05-05T05:40:33.683Z,5.35
2023-05-05T05:43:00.509Z,5.35
2023-05-05T05:45:27.987Z,5.42
2023-05-05T05:47:55.157Z,5.56
2023-05-05T05:50:22.090Z,5.36
2023-05-05T05:52:49.000Z,5.05
2023-05-05T05:55:15.770Z,5.82
2023-05-05T05:57:42.756Z,5.12
2023-05-05T06:00:11.421Z,5.77
2023-05-05T06:02:44.676Z,5.53
2023-05-05T06:05:14.755Z,5.63
2023-05-05T06:07:42.565Z,5.78
2023-05-05T06:10:27.189Z,5.79
2023-05-05T06:12:59.334Z,5.67
2023-05-05T06:15:26.368Z,5.57
2023-05-05T06:17:53.598Z,5.62
2023-05-05T06:20:21.913Z,4.88
2023-05-05T06:22:48.631Z,5.05
2023-05-05T06:25:15.602Z,6.00
2023-05-05T06:27:42.266Z,6.07
2023-05-05T06:30:09.854Z,5.96
2023-05-05T06:32:36.717Z,5.93
2023-05-05T06:35:03.598Z,6.14
2023-05-05T06:37:35.929Z,6.03
2023-05-05T06:40:14.944Z,6.25
2023-05-05T06:42:41.733Z,6.28
2023-05-05T06:45:11.319Z,6.32
2023-05-05T06:47:38.142Z,6.13
2023-05-05T06:50:06.225Z,6.26
2023-05-05T06:52:33.156Z,6.29
2023-05-05T06:54:59.871Z,6.26
2023-05-05T06:57:26.731Z,6.21
2023-05-05T06:59:53.980Z,6.03
2023-05-05T07:02:20.848Z,6.39
2023-05-05T07:04:47.514Z,6.44
2023-05-05T07:07:14.205Z,6.52
2023-05-05T07:09:41.316Z,6.53
2023-05-05T07:12:08.141Z,6.11
2023-05-05T07:14:34.731Z,6.50
2023-05-05T07:17:01.637Z,6.25
2023-05-05T07:19:28.314Z,6.87
2023-05-05T07:21:55.110Z,6.97
2023-05-05T07:24:24.377Z,7.05
2023-05-05T07:26:51.113Z,7.10
2023-05-05T07:29:17.832Z,7.10
2023-05-05T07:31:44.664Z,7.07
2023-05-05T07:34:11.337Z,7.21
2023-05-05T07:36:37.976Z,7.03
2023-05-05T07:39:05.160Z,7.14
2023-05-05T07:41:31.810Z,7.06
2023-05-05T07:43:58.493Z,6.00
2023-05-05T07:46:25.209Z,7.01
2023-05-05T07:48:51.860Z,7.09
2023-05-05T07:51:18.674Z,6.57
2023-05-05T07:53:45.481Z,7.19
2023-05-05T07:56:12.247Z,7.21
2023-05-05T07:58:39.014Z,7.31
2023-05-05T08:01:06.966Z,6.90
2023-05-05T08:03:33.847Z,6.74
2023-05-05T08:06:09.268Z,7.42
2023-05-05T08:08:36.325Z,7.29
2023-05-05T08:11:03.576Z,7.44
2023-05-05T08:13:30.468Z,7.21
2023-05-05T08:15:57.202Z,7.00
2023-05-05T08:18:24.668Z,7.48
2023-05-05T08:20:51.995Z,7.59
2023-05-05T08:23:18.824Z,7.60
2023-05-05T08:25:45.505Z,7.61
2023-05-05T08:28:12.086Z,5.14
2023-05-05T08:30:39.163Z,7.60
2023-05-05T08:33:06.116Z,7.56
2023-05-05T08:35:32.738Z,7.34
2023-05-05T08:37:59.502Z,7.77
2023-05-05T08:40:33.109Z,6.62
2023-05-05T08:43:00.040Z,7.87
2023-05-05T08:45:28.906Z,7.85
2023-05-05T08:48:01.933Z,7.70
2023-05-05T08:50:29.763Z,7.85
2023-05-05T08:53:12.634Z,7.87
2023-05-05T08:56:05.667Z,7.73
2023-05-05T08:58:33.444Z,7.79
2023-05-05T09:01:01.608Z,7.65
2023-05-05T09:03:29.768Z,7.36
2023-05-05T09:05:56.966Z,7.89
2023-05-05T09:08:24.678Z,7.62
2023-05-05T09:10:51.857Z,7.02
2023-05-05T09:13:18.684Z,7.93
2023-05-05T09:15:45.476Z,7.81
2023-05-05T09:18:13.084Z,7.96
2023-05-05T09:20:40.911Z,7.98
2023-05-05T09:23:18.767Z,7.87
2023-05-05T09:25:48.023Z,7.80
2023-05-05T09:28:16.861Z,6.86
2023-05-05T09:30:47.452Z,7.83
2023-05-05T09:33:14.376Z,6.00
2023-05-05T09:35:55.530Z,7.87
2023-05-05T09:38:32.481Z,7.76
2023-05-05T09:40:59.145Z,7.78
2023-05-05T09:43:25.743Z,7.79
2023-05-05T09:46:06.239Z,7.20
2023-05-05T09:48:33.093Z,7.83
2023-05-05T09:51:00.390Z,8.04
2023-05-05T09:53:38.575Z,7.43
2023-05-05T09:56:05.818Z,8.08
2023-05-05T09:58:32.628Z,8.18
2023-05-05T10:00:59.505Z,7.22
2023-05-05T10:03:26.274Z,8.26
2023-05-05T10:06:01.090Z,8.31
2023-05-05T10:08:30.579Z,8.35
2023-05-05T10:11:04.095Z,8.29
2023-05-05T10:13:35.501Z,8.29
2023-05-05T10:16:03.927Z,7.82
2023-05-05T10:18:32.529Z,8.45
2023-05-05T10:21:02.162Z,7.31
2023-05-05T10:23:34.882Z,8.52
2023-05-05T10:26:05.515Z,8.53
2023-05-05T10:28:34.248Z,8.60
2023-05-05T10:31:07.586Z,8.59
2023-05-05T10:34:03.639Z,8.59
2023-05-05T10:36:31.825Z,8.65
2023-05-05T10:39:00.574Z,8.68
2023-05-05T10:41:28.667Z,8.50
2023-05-05T10:43:59.648Z,5.92
2023-05-05T10:46:28.778Z,7.30
2023-05-05T10:49:28.854Z,8.86
2023-05-05T10:52:20.101Z,8.91
2023-05-05T10:55:02.468Z,8.90
2023-05-05T10:57:32.187Z,8.51
2023-05-05T10:59:58.856Z,7.86
2023-05-05T11:02:29.662Z,8.85
2023-05-05T11:05:06.166Z,8.88
2023-05-05T11:07:34.480Z,8.86
2023-05-05T11:10:03.460Z,8.88
2023-05-05T11:12:31.845Z,8.92
2023-05-05T11:15:26.677Z,9.06
2023-05-05T11:17:55.129Z,9.17
2023-05-05T11:20:37.558Z,9.20
2023-05-05T11:23:04.411Z,9.29
2023-05-05T11:25:34.516Z,9.27
2023-05-05T11:28:17.501Z,9.25
2023-05-05T11:30:57.829Z,9.22
2023-05-05T11:33:29.658Z,9.11
2023-05-05T11:35:57.792Z,9.13
2023-05-05T11:38:36.547Z,9.17
2023-05-05T11:41:12.458Z,8.67
2023-05-05T11:43:40.069Z,8.73
2023-05-05T11:46:17.031Z,9.25
2023-05-05T11:48:45.123Z,8.06
2023-05-05T11:51:16.290Z,9.12
2023-05-05T11:53:47.697Z,9.21
2023-05-05T11:56:24.869Z,9.33
2023-05-05T11:59:12.427Z,9.47
2023-05-05T12:01:42.338Z,9.51
2023-05-05T12:04:13.018Z,9.43
2023-05-05T12:06:40.359Z,9.60
2023-05-05T12:09:14.328Z,9.59
2023-05-05T12:11:51.809Z,9.68
2023-05-05T12:14:18.617Z,9.51
2023-05-05T12:17:14.484Z,9.66
2023-05-05T12:19:54.982Z,9.62
2023-05-05T12:22:23.892Z,9.62
2023-05-05T12:24:57.713Z,9.68
2023-05-05T12:27:26.837Z,9.79
2023-05-05T12:29:55.238Z,9.79
2023-05-05T12:32:27.767Z,9.70
2023-05-05T12:34:57.572Z,9.65
2023-05-05T12:37:26.060Z,7.11
2023-05-05T12:39:55.107Z,9.38
2023-05-05T12:42:22.479Z,9.78
2023-05-05T12:44:49.557Z,9.72
2023-05-05T12:47:31.255Z,9.77
2023-05-05T12:50:00.305Z,9.72
2023-05-05T12:52:44.035Z,9.73
2023-05-05T12:55:11.465Z,9.64
2023-05-05T12:57:39.126Z,9.68
2023-05-05T13:00:18.031Z,9.56
2023-05-05T13:02:44.792Z,9.64
2023-05-05T13:05:11.973Z,9.47
2023-05-05T13:07:50.774Z,9.87
2023-05-05T13:10:18.512Z,9.91
2023-05-05T13:12:45.382Z,9.74
2023-05-05T13:15:12.475Z,9.46
2023-05-05T13:17:39.256Z,9.91
2023-05-05T13:20:08.041Z,9.04
2023-05-05T13:22:34.651Z,9.80
2023-05-05T13:25:01.457Z,9.80
2023-05-05T13:27:28.197Z,9.81
2023-05-05T13:29:54.985Z,9.23
2023-05-05T13:32:21.546Z,9.92
2023-05-05T13:34:48.180Z,10.01
2023-05-05T13:37:14.956Z,9.84
2023-05-05T13:39:41.588Z,9.68
2023-05-05T13:42:08.359Z,9.83
2023-05-05T13:44:35.640Z,9.88
2023-05-05T13:47:02.298Z,9.81
2023-05-05T13:49:28.927Z,9.94
2023-05-05T13:51:56.340Z,9.90
2023-05-05T13:54:23.061Z,9.89
2023-05-05T13:56:49.675Z,8.97
2023-05-05T13:59:16.309Z,10.04
2023-05-05T14:01:42.982Z,10.10
2023-05-05T14:04:09.645Z,10.17
2023-05-05T14:06:36.429Z,10.07
2023-05-05T14:09:05.808Z,10.19
2023-05-05T14:11:32.868Z,10.17
2023-05-05T14:13:59.567Z,10.18
2023-05-05T14:16:26.344Z,10.22
2023-05-05T14:18:53.138Z,10.23
2023-05-05T14:21:19.768Z,10.27
2023-05-05T14:23:46.490Z,10.36
2023-05-05T14:26:13.224Z,10.43
2023-05-05T14:28:39.849Z,9.56
2023-05-05T14:31:06.520Z,10.57
2023-05-05T14:33:33.219Z,10.64
2023-05-05T14:35:59.985Z,10.62
2023-05-05T14:38:26.683Z,10.42
2023-05-05T14:40:53.407Z,10.63
2023-05-05T14:43:20.760Z,10.54
2023-05-05T14:45:47.485Z,10.53
2023-05-05T14:48:14.120Z,10.53
2023-05-05T14:50:42.435Z,10.66
2023-05-05T14:53:09.205Z,10.84
2023-05-05T14:55:35.808Z,10.91
2023-05-05T14:58:02.447Z,10.60
2023-05-05T15:00:29.144Z,10.79
2023-05-05T15:02:56.203Z,10.75
2023-05-05T15:05:22.979Z,10.75
2023-05-05T15:07:49.678Z,9.51
2023-05-05T15:10:16.497Z,10.12
2023-05-05T15:12:43.492Z,10.66
2023-05-05T15:15:10.748Z,10.74
2023-05-05T15:17:38.801Z,10.69
2023-05-05T15:20:06.847Z,10.67
2023-05-05T15:22:33.908Z,10.41
2023-05-05T15:25:01.257Z,10.64
2023-05-05T15:27:28.381Z,10.73
2023-05-05T15:29:55.327Z,10.65
2023-05-05T15:32:22.210Z,10.65
2023-05-05T15:34:50.371Z,10.58
2023-05-05T15:37:17.443Z,10.70
2023-05-05T15:39:44.263Z,10.76
2023-05-05T15:42:11.057Z,9.17
2023-05-05T15:44:38.262Z,10.22
2023-05-05T15:47:06.461Z,9.48
2023-05-05T15:49:33.303Z,10.62
2023-05-05T15:52:00.796Z,10.75
2023-05-05T15:54:27.597Z,10.29
2023-05-05T15:56:54.989Z,10.58
2023-05-05T15:59:22.473Z,10.96
2023-05-05T16:01:49.189Z,10.58
2023-05-05T16:04:15.786Z,11.06
2023-05-05T16:06:42.517Z,10.98
2023-05-05T16:09:09.310Z,8.96
2023-05-05T16:11:37.504Z,10.83
2023-05-05T16:14:04.449Z,10.85
2023-05-05T16:16:31.255Z,10.66
2023-05-05T16:18:57.931Z,10.91
2023-05-05T16:21:24.721Z,10.94
2023-05-05T16:23:51.449Z,10.99
2023-05-05T16:26:19.331Z,11.00
2023-05-05T16:28:46.103Z,10.88
2023-05-05T16:31:14.565Z,11.03
2023-05-05T16:33:43.498Z,10.98
2023-05-05T16:36:14.103Z,10.54
2023-05-05T16:38:41.107Z,10.23
2023-05-05T16:41:08.264Z,11.00
2023-05-05T16:43:37.243Z,10.99
2023-05-05T16:46:04.300Z,10.90
2023-05-05T16:48:31.116Z,10.95
2023-05-05T16:50:58.120Z,10.94
2023-05-05T16:53:26.340Z,10.40
2023-05-05T16:55:53.550Z,10.85
2023-05-05T16:58:21.276Z,10.88
2023-05-05T17:00:49.200Z,10.94
2023-05-05T17:03:17.038Z,10.94
2023-05-05T17:05:44.703Z,9.73
2023-05-05T17:08:14.073Z,10.39
2023-05-05T17:10:42.205Z,10.79
2023-05-05T17:13:09.614Z,10.99
2023-05-05T17:15:37.514Z,11.00
2023-05-05T17:18:05.437Z,10.52
2023-05-05T17:20:32.904Z,11.01
2023-05-05T17:22:59.683Z,11.02
2023-05-05T17:25:26.308Z,11.01
2023-05-05T17:27:52.993Z,9.45
2023-05-05T17:30:19.840Z,10.70
2023-05-05T17:32:47.377Z,10.37
2023-05-05T17:35:14.655Z,10.80
2023-05-05T17:37:41.369Z,10.97
2023-05-05T17:40:08.448Z,10.47
2023-05-05T17:42:35.130Z,10.30
2023-05-05T17:45:05.200Z,10.46
2023-05-05T17:47:31.988Z,10.93
2023-05-05T17:49:58.959Z,10.66
2023-05-05T17:52:26.030Z,11.03
2023-05-05T17:54:52.689Z,10.41
2023-05-05T17:57:21.193Z,10.38
2023-05-05T17:59:53.704Z,10.79
2023-05-05T18:02:21.305Z,11.00
2023-05-05T18:04:48.017Z,11.01
2023-05-05T18:07:15.050Z,10.53
2023-05-05T18:09:42.227Z,10.94
2023-05-05T18:12:09.078Z,10.87
2023-05-05T18:14:35.814Z,10.91
2023-05-05T18:17:02.989Z,10.87
2023-05-05T18:19:29.658Z,10.79
2023-05-05T18:21:57.426Z,10.71
2023-05-05T18:24:24.403Z,10.71
2023-05-05T18:26:52.480Z,10.66
2023-05-05T18:29:21.671Z,10.55
2023-05-05T18:31:51.439Z,10.62
2023-05-05T18:34:19.129Z,10.33
2023-05-05T18:36:46.389Z,10.51
2023-05-05T18:39:13.998Z,10.44
2023-05-05T18:41:41.115Z,9.48
2023-05-05T18:44:07.985Z,9.70
2023-05-05T18:46:34.792Z,10.15
2023-05-05T18:49:01.675Z,10.11
2023-05-05T18:51:28.675Z,9.93
2023-05-05T18:53:55.554Z,10.01
2023-05-05T18:56:22.222Z,9.51
2023-05-05T18:58:49.078Z,9.74
2023-05-05T19:01:16.362Z,9.52
2023-05-05T19:03:47.745Z,9.80
2023-05-05T19:06:15.203Z,9.79
2023-05-05T19:08:42.550Z,9.77
2023-05-05T19:11:09.245Z,9.46
2023-05-05T19:13:36.001Z,9.75
2023-05-05T19:16:02.736Z,9.26
2023-05-05T19:18:29.485Z,9.68
2023-05-05T19:20:56.218Z,9.58
2023-05-05T19:23:22.933Z,9.40
2023-05-05T19:25:53.351Z,8.70
2023-05-05T19:28:20.084Z,9.29
2023-05-05T19:30:48.561Z,9.36
2023-05-05T19:33:16.230Z,9.38
2023-05-05T19:35:43.367Z,9.02
2023-05-05T19:38:10.381Z,8.60
2023-05-05T19:40:41.129Z,9.28
2023-05-05T19:43:08.187Z,9.11
2023-05-05T19:45:35.076Z,9.10
2023-05-05T19:48:02.194Z,9.21
2023-05-05T19:50:30.611Z,9.24
2023-05-05T19:52:58.134Z,9.21
2023-05-05T19:55:24.906Z,9.19
2023-05-05T19:57:51.620Z,9.13
2023-05-05T20:00:18.680Z,9.16
2023-05-05T20:02:45.711Z,9.15
2023-05-05T20:05:17.221Z,8.86
2023-05-05T20:07:46.757Z,9.09
2023-05-05T20:10:13.823Z,9.01
2023-05-05T20:12:49.052Z,8.29
2023-05-05T20:15:20.549Z,8.95
2023-05-05T20:17:48.354Z,8.69
2023-05-05T20:20:18.633Z,8.87
2023-05-05T20:22:46.455Z,8.60
2023-05-05T20:25:15.205Z,8.76
2023-05-05T20:27:42.544Z,8.31
2023-05-05T20:30:10.537Z,8.60
2023-05-05T20:32:37.830Z,8.06
2023-05-05T20:35:06.062Z,7.59
2023-05-05T20:37:32.772Z,7.42
2023-05-05T20:39:59.626Z,8.31
2023-05-05T20:42:27.836Z,8.27
2023-05-05T20:44:55.497Z,8.27
2023-05-05T20:47:22.206Z,8.01
2023-05-05T20:49:48.824Z,8.01
2023-05-05T20:52:17.350Z,8.08
2023-05-05T20:54:44.116Z,7.10
2023-05-05T20:57:10.892Z,7.35
2023-05-05T20:59:38.080Z,7.93
2023-05-05T21:02:08.334Z,7.86
2023-05-05T21:04:35.582Z,7.57
2023-05-05T21:07:03.285Z,7.52
2023-05-05T21:09:31.795Z,7.52
2023-05-05T21:11:58.500Z,7.42
2023-05-05T21:14:25.310Z,7.27
2023-05-05T21:16:52.090Z,7.31
2023-05-05T21:19:19.121Z,7.22
2023-05-05T21:21:46.072Z,7.08
2023-05-05T21:24:15.465Z,7.21
2023-05-05T21:26:45.425Z,7.25
2023-05-05T21:29:12.225Z,6.60
2023-05-05T21:31:49.450Z,6.48
2023-05-05T21:34:17.808Z,6.94
2023-05-05T21:36:44.566Z,6.87
2023-05-05T21:39:12.166Z,6.88
2023-05-05T21:41:40.701Z,6.37
2023-05-05T21:44:07.353Z,6.90
2023-05-05T21:46:34.078Z,6.34
2023-05-05T21:49:00.907Z,6.41
2023-05-05T21:51:27.581Z,6.10
2023-05-05T21:53:54.205Z,6.67
2023-05-05T21:56:20.774Z,6.29
2023-05-05T21:58:47.440Z,3.99
2023-05-05T22:01:14.084Z,6.31
2023-05-05T22:03:43.539Z,6.40
2023-05-05T22:06:28.728Z,6.37
2023-05-05T22:09:13.895Z,5.43
2023-05-05T22:11:40.717Z,4.94
2023-05-05T22:14:07.346Z,5.14
2023-05-05T22:16:37.548Z,5.68
2023-05-05T22:19:04.443Z,5.61
2023-05-05T22:21:31.556Z,5.32
2023-05-05T22:23:58.350Z,4.77
2023-05-05T22:26:25.090Z,4.60
2023-05-05T22:28:51.755Z,4.36
2023-05-05T22:31:18.582Z,3.98
2023-05-05T22:33:45.302Z,4.49
2023-05-05T22:36:13.098Z,4.51
2023-05-05T22:38:39.835Z,4.23
2023-05-05T22:41:07.273Z,4.17
2023-05-05T22:43:34.013Z,3.88
2023-05-05T22:46:01.118Z,4.02
2023-05-05T22:48:27.833Z,4.05
2023-05-05T22:50:54.560Z,4.22
2023-05-05T22:53:21.270Z,4.06
2023-05-05T22:55:48.044Z,4.29
2023-05-05T22:58:14.661Z,4.33
2023-05-05T23:00:41.351Z,4.49
2023-05-05T23:03:08.544Z,4.07
2023-05-05T23:05:35.648Z,2.45
2023-05-05T23:08:02.394Z,4.08
2023-05-05T23:10:29.271Z,4.34
2023-05-05T23:12:56.039Z,4.45
2023-05-05T23:15:22.843Z,4.36
2023-05-05T23:17:49.833Z,4.36
2023-05-05T23:20:16.571Z,4.79
2023-05-05T23:22:43.267Z,4.90
2023-05-05T23:25:10.602Z,4.92
2023-05-05T23:27:38.948Z,5.01
2023-05-05T23:30:07.415Z,5.03
2023-05-05T23:32:34.380Z,5.03
2023-05-05T23:35:01.350Z,4.90
2023-05-05T23:37:28.141Z,4.77
2023-05-05T23:39:54.850Z,4.93
2023-05-05T23:42:21.468Z,4.97
2023-05-05T23:44:48.132Z,4.33
2023-05-05T23:47:14.840Z,5.00
2023-05-05T23:49:41.509Z,4.89
2023-05-05T23:52:08.706Z,4.93
2023-05-05T23:54:35.458Z,5.00
2023-05-05T23:57:02.316Z,5.03
2023-05-05T23:59:28.951Z,5.04
